Terminal Aerodrome Forecast
Issued by NWS

Home | Current Version | Previous Version | Text Only | Print | Product List | Glossary On
Versions: 1 2 3 4 5 6 7 8 9 10 11 12 13 14 15 16
000
FTUS44 KEPZ 221700 RRA
TAFTCS
TAF
KTCS 221754Z 2218/2318 17006KT P6SM SCT030 SCT120
     FM222100 19007KT P6SM SCT040 SCT120
     FM230300 25007KT P6SM FEW050
     FM230600 31006KT P6SM FEW050
     FM231700 15007KT P6SM FEW060 FEW250=

USA.gov is the U.S. government's official web portal to all federal, state and local government web resources and services.